Flight Track Log - Related Links

Times and Time Zones

All times are in EDT time to prevent confusion due to time zone crossing. See the N960DL flight status page for this flight to view local times or setup timezone preferences in your user account.

Time Position Orientation Groundspeed Altitude Reporting Facility
EDT Latitude Longitude Course Direction KTS MPH feet Rate Location/Type
Thu 10:26:28 AM 39.7000 -86.3000 176° South 171 197 1,300  Level Indianapolis TRACON
Thu 10:27:16 AM 39.6667 -86.3333 218° Southwest 185 213 2,600 1,938 Climbing Indianapolis TRACON
Thu 10:28:04 AM 39.6303 -86.3864 228° Southwest 223 257 4,400 2,686 Climbing Indianapolis Center
Thu 10:29:00 AM 39.4000 -86.2667 180° South  Level FlightAware
Thu 10:30:00 AM 39.2943 -86.2644 176° South  Level FlightAware
Thu 10:30:08 AM 39.4783 -86.3900 181° South 286 329 10,300  Level Indianapolis Center
Thu 10:31:00 AM 39.1888 -86.2539 176° South  Level FlightAware
Thu 10:31:10 AM 39.3889 -86.3806 175° South 317 365 11,600  Level Indianapolis Center
Thu 10:32:12 AM 39.2828 -86.3667 174° South 371 427 13,500 2,032 Climbing Indianapolis Center
Thu 10:33:14 AM 39.1694 -86.3525 174° South 404 465 15,800 2,468 Climbing Indianapolis Center
Thu 10:34:16 AM 39.0294 -86.3339 174° South 418 481 18,600 2,274 Climbing Indianapolis Center
Thu 10:35:18 AM 38.9092 -86.3175 174° South 431 496 20,500 1,742 Climbing Indianapolis Center
Thu 10:36:20 AM 38.7842 -86.3042 175° South 441 507 22,200 1,645 Climbing Indianapolis Center
Thu 10:37:22 AM 38.6556 -86.3075 181° South 458 527 23,900 1,790 Climbing Indianapolis Center
Thu 10:38:24 AM 38.5294 -86.3189 184° South 451 519 25,900 1,839 Climbing Indianapolis Center
Thu 10:39:26 AM 38.4039 -86.3283 183° South 447 514 27,700 1,597 Climbing Indianapolis Center
Thu 10:40:28 AM 38.2792 -86.3378 183° South 446 513 29,200 1,597 Climbing Indianapolis Center
Thu 10:41:30 AM 38.1317 -86.3481 183° South 439 505 31,000 1,597 Climbing Indianapolis Center
Thu 10:42:32 AM 38.0119 -86.3581 184° South 428 493 32,500 1,113 Climbing Indianapolis Center
Thu 10:43:34 AM 37.8931 -86.3681 184° South 425 489 33,300 677 Climbing Indianapolis Center
Thu 10:44:36 AM 37.7750 -86.3753 183° South 426 490 33,900 532 Climbing Indianapolis Center
Thu 10:45:38 AM 37.6547 -86.3872 184° South 429 494 34,400 532 Climbing Indianapolis Center
Thu 10:46:40 AM 37.5356 -86.3950 183° South 426 490 35,000 290 Climbing Indianapolis Center
Thu 10:47:42 AM 37.4175 -86.4056 184° South 422 486 35,000  Level Indianapolis Center
Thu 10:48:44 AM 37.2983 -86.4153 184° South 423 487 35,000  Level Indianapolis Center
Thu 10:49:46 AM 37.1589 -86.4242 183° South 424 488 35,000  Level Indianapolis Center
Thu 10:50:20 AM 37.0906 -86.4275 182° South 420 483 35,000  Level Memphis Center
Thu 10:51:20 AM 36.9719 -86.4361 183° South 426 490 35,000  Level Memphis Center
Thu 10:52:20 AM 36.8531 -86.4339 179° South 426 490 35,000  Level Memphis Center
Thu 10:53:20 AM 36.7300 -86.4244 176° South 432 497 35,000  Level Memphis Center
Thu 10:54:20 AM 36.6086 -86.4150 176° South 444 511 35,000  Level Memphis Center
Thu 10:55:20 AM 36.4894 -86.4053 176° South 444 511 35,000 -550 Level Memphis Center
Thu 10:56:20 AM 36.3803 -86.3744 167° South 444 511 33,900 -1,200 Descending Memphis Center
Thu 10:57:20 AM 36.2617 -86.3211 160° South 454 522 32,600 -1,100 Descending Memphis Center
Thu 10:58:20 AM 36.1433 -86.2731 162° South 460 529 31,700 -800 Descending Memphis Center
Thu 10:59:20 AM 36.0208 -86.2200 161° South 460 529 31,000 -350 Descending Memphis Center
Thu 11:00:20 AM 35.9022 -86.1722 162° South 455 524 31,000  Level Memphis Center
Thu 11:02:44 AM 35.6081 -86.0489 161° South 461 531 31,000  Level Atlanta Center
Thu 11:03:44 AM 35.4897 -86.0028 162° South 456 525 31,000  Level Atlanta Center
Thu 11:04:44 AM 35.3842 -85.9569 161° South 451 519 31,000 -750 Level Atlanta Center
Thu 11:05:44 AM 35.2600 -85.8881 156° South 451 519 29,500 -1,700 Descending Atlanta Center
Thu 11:06:44 AM 35.1547 -85.8069 148° Southeast 446 513 27,600 -1,750 Descending Atlanta Center
Thu 11:07:44 AM 35.0431 -85.7308 151° Southeast 451 519 26,000 -1,450 Descending Atlanta Center
Thu 11:08:44 AM 34.9356 -85.6553 150° Southeast 451 519 24,700 -1,000 Descending Atlanta Center
Thu 11:09:44 AM 34.8281 -85.5772 149° Southeast 451 519 24,000 -350 Descending Atlanta Center
Thu 11:10:44 AM 34.7225 -85.5072 151° Southeast 446 513 24,000  Level Atlanta Center
Thu 11:11:44 AM 34.6169 -85.4319 150° Southeast 446 513 24,000 -300 Level Atlanta Center
Thu 11:12:44 AM 34.5114 -85.3572 150° Southeast 446 513 23,400 -1,400 Descending Atlanta Center
Thu 11:13:44 AM 34.4100 -85.2878 151° Southeast 436 502 21,200 -2,500 Descending Atlanta Center
Thu 11:14:44 AM 34.3125 -85.2208 150° Southeast 417 480 18,400 -2,500 Descending Atlanta Center
Thu 11:15:44 AM 34.2131 -85.1517 150° Southeast 417 480 16,200 -2,050 Descending Atlanta Center
Thu 11:16:44 AM 34.1342 -85.0828 144° Southeast 406 467 14,300 -1,100 Descending Atlanta Center
Thu 11:17:44 AM 34.0578 -84.9842 133° Southeast 399 459 14,000 -150 Descending Atlanta Center
Thu 11:18:44 AM 33.9833 -84.8906 134° Southeast 394 453 14,000 -700 Level Atlanta Center
Thu 11:19:44 AM 33.9089 -84.7947 133° Southeast 389 448 12,600 -1,429 Descending Atlanta Center
Thu 11:20:08 AM 33.8667 -84.7500 139° Southeast 386 444 12,000 -1,143 Descending Atlanta TRACON
Thu 11:21:08 AM 33.8000 -84.6500 129° Southeast 369 425 11,000 -500 Descending Atlanta TRACON
Thu 11:22:08 AM 33.7333 -84.5833 140° Southeast 302 348 11,000  Level Atlanta TRACON
Thu 11:23:02 AM 33.7333 -84.4833 90° East 289 333 11,000 -1,000 Level Atlanta TRACON
Thu 11:24:02 AM 33.7333 -84.4000 90° East 297 342 9,100 -2,000 Descending Atlanta TRACON
Thu 11:25:02 AM 33.7333 -84.3000 90° East 283 326 7,000 -1,952 Descending Atlanta TRACON
Thu 11:26:08 AM 33.7167 -84.2000 101° East 269 310 5,000 -1,429 Descending Atlanta TRACON
Thu 11:27:08 AM 33.6667 -84.2000 180° South 218 251 4,000 -1,000 Descending Atlanta TRACON

Login

Don't have an account? Register now (free) for customized features, flight alerts, and more!